الصفحة الرئيسية
METAR-TAF:

METAR-TAF

مطار :

Tsushima, اليابان

دائرة عرض: 34-17N, خط طول: 129-20E, ارتفاع: 63 متر

مراقبة الطقس الحالي

تاريخ ووقت الإصدار 35 دقيقة قبل الساعة 01:00UTC
ريح 4 عقدة من الغرب/الشمال الغربي, الاتجاه يتراوح بين الجنوب و الشمال/الشمال الغربي
درجة الحرارة 23°درجة مئوية
الرطوبة 73%
ضغط 1010 hPa
الرؤية: 8000 متر
غيوم قليلة على ارتفاع 2000 قدم
غيوم مفككة على ارتفاع 18000 قدم

METAR: RJDT 250100Z 29004KT 180V330 8000 FEW020 BKN180 23/18 Q1010

زمن: 10:35 (01:35 UTC)


TAF: مفقودة

أرصاد الطقس والتوقعات من أكثر من 4000 مطار (تقارير الطقس للمطار METAR والتنبؤ بالطقس بالمطارTAF).

المحطات المتاحة هي النقط الصفراء والحمراء على الخريطة.

حرك المؤشر فوق النقطة لمعرفة اسم المحطة.

ثم انقر لمعرفة أرصاد وتوقعات الطقس.

لتغيير الخارطة: اضغط على الأزرار الخضراء مع رمز الصليب الأسود للتكبير. على الزر الأخضر مع شرطة للتصغير، أو على الأسهم الخضراء للخرائط المجاورة.


METAR-TAF: